Portada
METAR-TAF:

METAR-TAF

Aeroports :

Philip Billard Municipal Airport

Topeka, Kansas, Estats Units d'Amèrica

latitud: 39-04-21N, longitud: 095-37-33W, altitud: 268 m

Observació

L'informe es va fer fa 9 minuts, a les 18:33 UTC
Vent 11 kt del Oest/Nord-Oest
Temperatura 20°C
Humitat 88%
Pressió 1007 hPa
Visibilitat: 8.0 km
Escasses núvols a una alçada de 700 ft
Cel ennuvolat a una alçada de 1200 ft
Cel cobert a una alçada de 5500 ft
pluja, boirina

METAR: KTOP 261833Z 30011KT 5SM -RA BR FEW007 BKN012 OVC055 20/18 A2974 RMK AO2 P0005 T02000178

Hora: 13:42 (18:42 UTC)

Pronòstic

L'informe es va fer fa 1 hora i 22 minuts, a les 17:20 UTC
Pronòstic vàlid del 26 a les 18 UTC al 27 a les 18 UTC
Vent 10 kt del Nord-Oest
Visibilitat: 8.0 km
Cel cobert a una alçada de 1000 ft
boirina
A partir de les 26 a les 2100 UTC
Vent 8 kt del Oest/Nord-Oest
Visibilitat: 10 km
Cel ennuvolat a una alçada de 1000 ft

TAF: KTOP 261720Z 2618/2718 31010KT 5SM BR OVC010 FM262100 29008KT P6SM BKN010

Observacions i pronòstics meteorològics de més de 4000 aeroports (METAR i TAF).

Les estacions disponibles són els punts grocs i vermells al mapa.

Posi el ratolí al punt desitjat per veure el nom de l'estació.

Feu clic per veure les observacions i els pronòstics meteorològics.

Per canviar el mapa: feu clic els botons verds amb una creu de color negre per apropar; al botó verd amb un guió per allunyar la imatge; o en les fletxes verdes per a mapes adjacents.


METAR-TAF: